Time;durP1;ratioP1;P1;durP2;ratioP2;P2;SDS_P1;SDS_P2;PMS_P1;PMS_P2;Temp;Humidity;BMP_temperature;BMP_pressure;BME280_temperature;BME280_humidity;BME280_pressure;Samples;Min_cycle;Max_cycle;Signal;HPM_P1;HPM_P2
2021/04/01 00:02:24;;;;;;;10.88;3.95;;;9.80;99.90;;;;;;5066568;28;20044;-66
2021/04/01 00:05:09;;;;;;;10.23;3.17;;;9.70;99.90;;;;;;5069014;28;20134;-66
2021/04/01 00:07:54;;;;;;;10.90;3.53;;;9.70;99.90;;;;;;5053430;28;20043;-66
2021/04/01 00:10:55;;;;;;;9.05;3.53;;;9.70;99.90;;;;;;5077057;28;20025;-66
2021/04/01 00:13:40;;;;;;;9.20;3.90;;;9.70;99.90;;;;;;5068302;28;20118;-66
2021/04/01 00:16:24;;;;;;;8.48;4.00;;;9.60;99.90;;;;;;5069284;28;20045;-67
2021/04/01 00:19:09;;;;;;;12.90;4.10;;;9.60;99.90;;;;;;5067324;28;20393;-66
2021/04/01 00:21:53;;;;;;;10.77;3.97;;;9.60;99.90;;;;;;5052250;28;20043;-66
2021/04/01 00:24:37;;;;;;;7.85;3.67;;;9.60;99.90;;;;;;5062862;28;20039;-66
2021/04/01 00:27:22;;;;;;;8.13;3.88;;;9.60;99.90;;;;;;5066083;28;20032;-66
2021/04/01 00:30:08;;;;;;;16.80;3.80;;;9.60;99.90;;;;;;5050733;28;20171;-66
2021/04/01 00:32:53;;;;;;;11.40;3.50;;;9.60;99.90;;;;;;5053013;28;20132;-66
2021/04/01 00:35:37;;;;;;;10.43;3.70;;;9.40;99.90;;;;;;5067185;28;20035;-66
2021/04/01 00:38:21;;;;;;;9.60;3.67;;;9.30;99.90;;;;;;5070335;28;20182;-66
2021/04/01 00:41:06;;;;;;;11.48;3.75;;;9.20;99.90;;;;;;5069848;28;20131;-66
2021/04/01 00:43:51;;;;;;;11.80;4.78;;;9.10;99.90;;;;;;5071025;28;20123;-66
2021/04/01 00:46:36;;;;;;;10.80;3.72;;;9.20;99.90;;;;;;5062660;28;20060;-66
2021/04/01 00:49:21;;;;;;;7.95;3.92;;;9.30;99.90;;;;;;5071482;28;20031;-66
2021/04/01 00:52:06;;;;;;;13.38;4.68;;;9.40;99.90;;;;;;5068643;28;20065;-66
2021/04/01 00:54:51;;;;;;;9.18;3.92;;;9.50;99.90;;;;;;5054164;28;20079;-66
2021/04/01 00:57:36;;;;;;;11.68;4.60;;;9.60;99.90;;;;;;5069408;28;20066;-66
2021/04/01 01:00:24;;;;;;;9.38;5.22;;;9.60;99.90;;;;;;5078205;28;20128;-66
2021/04/01 01:03:28;;;;;;;12.82;5.38;;;9.60;99.90;;;;;;5068922;28;20131;-66
2021/04/01 01:06:33;;;;;;;12.48;4.75;;;9.50;99.90;;;;;;5069920;28;20120;-66
2021/04/01 01:09:37;;;;;;;10.00;4.57;;;9.40;99.90;;;;;;5064315;28;20067;-66
2021/04/01 01:12:42;;;;;;;12.25;4.82;;;9.30;99.90;;;;;;5069518;28;20262;-66
2021/04/01 01:15:47;;;;;;;12.20;4.50;;;9.20;99.90;;;;;;5054217;28;20025;-66
2021/04/01 01:18:31;;;;;;;15.02;5.13;;;9.00;99.90;;;;;;5056032;28;20089;-66
2021/04/01 01:21:15;;;;;;;12.68;4.75;;;8.80;99.90;;;;;;5075425;28;20060;-66
2021/04/01 01:24:02;;;;;;;12.43;4.20;;;8.80;99.90;;;;;;5052292;28;20462;-66
2021/04/01 01:27:07;;;;;;;14.88;4.13;;;8.90;99.90;;;;;;5069697;28;20032;-66
2021/04/01 01:29:52;;;;;;;14.52;4.65;;;9.00;99.90;;;;;;5070535;28;20051;-66
2021/04/01 01:32:38;;;;;;;15.63;4.93;;;9.00;99.90;;;;;;5049546;28;20028;-66
2021/04/01 01:35:42;;;;;;;16.17;4.57;;;8.90;99.90;;;;;;5067589;28;20508;-66
2021/04/01 01:38:37;;;;;;;10.93;4.88;;;8.70;99.90;;;;;;5052004;28;20083;-66
2021/04/01 01:41:21;;;;;;;10.90;5.15;;;8.70;99.90;;;;;;5064478;28;20061;-66
2021/04/01 01:44:06;;;;;;;14.80;4.78;;;8.60;99.90;;;;;;5080222;28;20515;-66
2021/04/01 01:46:56;;;;;;;10.63;4.72;;;8.50;99.90;;;;;;5053517;28;20040;-66
2021/04/01 01:49:44;;;;;;;9.50;4.40;;;8.40;99.90;;;;;;5083542;28;20106;-66
2021/04/01 01:52:28;;;;;;;10.45;4.30;;;8.50;99.90;;;;;;5085177;28;20035;-66
2021/04/01 01:55:14;;;;;;;10.38;4.05;;;8.60;99.90;;;;;;5069133;28;20120;-66
2021/04/01 01:57:58;;;;;;;9.52;4.55;;;8.70;99.90;;;;;;5069020;28;20757;-66
2021/04/01 02:00:51;;;;;;;13.25;4.72;;;8.60;99.90;;;;;;5068646;28;20044;-66
2021/04/01 02:03:35;;;;;;;11.07;4.35;;;8.60;99.90;;;;;;5067494;28;20039;-66
2021/04/01 02:06:22;;;;;;;10.93;4.22;;;8.60;99.90;;;;;;5052896;28;20036;-66
2021/04/01 02:09:06;;;;;;;12.57;4.15;;;8.60;99.90;;;;;;5064786;28;20125;-66
2021/04/01 02:11:50;;;;;;;14.70;5.03;;;8.50;99.90;;;;;;5084284;28;20093;-66
2021/04/01 02:14:34;;;;;;;9.60;4.38;;;8.50;99.90;;;;;;5067867;28;20055;-66
2021/04/01 02:17:23;;;;;;;10.98;4.72;;;8.40;99.90;;;;;;5070706;28;20090;-66
2021/04/01 02:20:10;;;;;;;8.40;4.57;;;8.30;99.90;;;;;;5082758;28;20040;-66
2021/04/01 02:22:55;;;;;;;10.65;4.50;;;8.40;99.90;;;;;;5084451;28;20140;-66
2021/04/01 02:25:45;;;;;;;9.05;4.05;;;8.40;99.90;;;;;;5086129;28;20029;-66
2021/04/01 02:28:31;;;;;;;7.82;4.13;;;8.30;99.90;;;;;;5083599;28;20109;-66
2021/04/01 02:31:21;;;;;;;11.05;4.35;;;8.20;99.90;;;;;;5082097;28;20500;-65
2021/04/01 02:34:06;;;;;;;11.30;4.18;;;8.20;99.90;;;;;;5085660;28;20051;-66
2021/04/01 02:36:50;;;;;;;7.25;4.13;;;8.20;99.90;;;;;;5050833;28;20043;-65
2021/04/01 02:39:34;;;;;;;9.68;4.47;;;8.20;99.90;;;;;;5068666;28;20107;-66
2021/04/01 02:42:18;;;;;;;8.95;4.32;;;8.20;99.90;;;;;;5070992;28;20145;-66
2021/04/01 02:45:03;;;;;;;12.57;4.35;;;8.20;99.90;;;;;;5084757;28;20059;-66
2021/04/01 02:47:48;;;;;;;9.88;4.50;;;8.10;99.90;;;;;;5050936;28;20036;-66
2021/04/01 02:50:32;;;;;;;12.35;4.57;;;8.00;99.90;;;;;;5047691;28;20229;-65
2021/04/01 02:53:17;;;;;;;10.23;4.68;;;8.00;99.90;;;;;;5079760;28;20028;-66
2021/04/01 02:56:09;;;;;;;11.18;4.88;;;7.90;99.90;;;;;;5042843;28;20124;-66
2021/04/01 02:58:53;;;;;;;7.55;4.00;;;7.80;99.90;;;;;;5081129;28;20147;-66
2021/04/01 03:01:40;;;;;;;10.55;5.30;;;7.70;99.90;;;;;;5061505;28;20089;-66
2021/04/01 03:04:24;;;;;;;9.27;4.65;;;7.70;99.90;;;;;;5067840;28;20055;-65
2021/04/01 03:07:09;;;;;;;11.40;4.63;;;7.70;99.90;;;;;;5050620;28;20071;-66
2021/04/01 03:09:53;;;;;;;11.13;5.20;;;7.80;99.90;;;;;;5030898;28;20043;-66
2021/04/01 03:12:38;;;;;;;11.48;5.40;;;7.70;99.90;;;;;;5076412;28;20032;-65
2021/04/01 03:15:23;;;;;;;13.77;5.70;;;7.70;99.90;;;;;;5083958;28;20036;-66
2021/04/01 03:18:10;;;;;;;12.60;5.32;;;7.60;99.90;;;;;;5068321;28;20066;-65
2021/04/01 03:20:55;;;;;;;12.93;5.07;;;7.70;99.90;;;;;;5068474;28;20063;-65
2021/04/01 03:23:47;;;;;;;11.65;4.93;;;7.70;99.90;;;;;;5049151;28;20155;-66
2021/04/01 03:26:31;;;;;;;10.05;4.63;;;7.70;99.90;;;;;;5067691;28;20097;-66
2021/04/01 03:29:16;;;;;;;9.93;4.22;;;7.80;99.90;;;;;;5080795;28;20120;-66
2021/04/01 03:32:21;;;;;;;10.20;5.10;;;7.80;99.90;;;;;;5068416;28;20108;-66
2021/04/01 03:35:12;;;;;;;10.18;4.93;;;7.80;99.90;;;;;;5070642;28;20044;-65
2021/04/01 03:37:59;;;;;;;9.63;4.85;;;7.80;99.90;;;;;;5051041;28;20073;-66
2021/04/01 03:40:44;;;;;;;12.18;5.28;;;7.70;99.90;;;;;;5052839;28;20435;-66
2021/04/01 03:43:28;;;;;;;16.50;5.35;;;7.60;99.90;;;;;;5068258;28;20553;-65
2021/04/01 03:46:13;;;;;;;13.80;4.70;;;7.50;99.90;;;;;;5068933;28;20036;-66
2021/04/01 03:48:57;;;;;;;13.98;5.30;;;7.40;99.90;;;;;;5059688;28;20043;-66
2021/04/01 03:51:41;;;;;;;14.30;5.55;;;7.40;99.90;;;;;;5083334;28;20032;-65
2021/04/01 03:54:26;;;;;;;14.70;6.25;;;7.30;99.90;;;;;;5036674;28;20035;-65
2021/04/01 03:57:10;;;;;;;9.02;5.05;;;7.40;99.90;;;;;;5083066;28;20432;-66
2021/04/01 04:00:04;;;;;;;12.27;5.13;;;7.40;99.90;;;;;;5066657;28;20112;-66
2021/04/01 04:06:30;;;;;;;12.07;5.63;;;7.20;99.90;;;;;;5036956;28;20089;-66
2021/04/01 04:09:09;;;;;;;9.38;5.80;;;7.20;99.90;;;;;;5061953;28;20033;-66
2021/04/01 04:14:44;;;;;;;13.15;6.00;;;7.20;99.90;;;;;;5082259;28;20051;-66
2021/04/01 04:17:31;;;;;;;8.35;5.03;;;7.20;99.90;;;;;;5073410;28;20078;-66
2021/04/01 04:20:16;;;;;;;10.57;5.25;;;7.30;99.90;;;;;;5070077;28;20035;-66
2021/04/01 04:23:01;;;;;;;12.00;4.13;;;7.40;99.90;;;;;;5042250;28;20470;-66
2021/04/01 04:25:46;;;;;;;11.52;5.55;;;7.20;99.90;;;;;;5070348;28;20093;-66
2021/04/01 04:28:32;;;;;;;15.90;5.65;;;7.10;99.90;;;;;;5072832;28;20461;-65
2021/04/01 04:31:17;;;;;;;15.32;5.97;;;7.10;99.90;;;;;;5069184;28;20028;-66
2021/04/01 04:34:01;;;;;;;15.40;7.18;;;7.20;99.90;;;;;;5093718;28;20032;-65
2021/04/01 04:36:45;;;;;;;10.63;5.60;;;7.20;99.90;;;;;;5053278;28;20025;-66
2021/04/01 04:39:30;;;;;;;13.13;6.05;;;7.20;99.90;;;;;;5054551;28;20044;-66
2021/04/01 04:42:14;;;;;;;15.18;6.05;;;7.30;99.90;;;;;;5069960;28;20115;-65
2021/04/01 04:44:59;;;;;;;15.95;7.35;;;7.30;99.90;;;;;;5073128;28;20033;-66
2021/04/01 04:47:43;;;;;;;15.27;7.65;;;7.20;99.90;;;;;;5049789;28;20102;-66
2021/04/01 04:50:27;;;;;;;18.80;11.55;;;7.10;99.90;;;;;;5079196;28;20595;-65
2021/04/01 04:53:13;;;;;;;17.48;8.18;;;7.10;99.90;;;;;;5071407;28;20040;-65
2021/04/01 05:04:44;;;;;;;13.88;7.68;;;7.00;99.90;;;;;;5071408;28;20557;-67
2021/04/01 05:07:28;;;;;;;18.27;6.75;;;7.00;99.90;;;;;;5087159;28;20036;-67
2021/04/01 05:10:13;;;;;;;12.90;6.75;;;7.00;99.90;;;;;;5066497;28;20040;-67
2021/04/01 05:13:10;;;;;;;13.77;6.18;;;7.10;99.90;;;;;;5067882;28;20044;-67
2021/04/01 05:15:55;;;;;;;12.55;6.70;;;7.10;99.90;;;;;;5058805;28;20101;-66
2021/04/01 05:18:39;;;;;;;13.20;6.60;;;7.20;99.90;;;;;;5072095;28;20082;-66
2021/04/01 05:21:31;;;;;;;16.02;5.57;;;7.10;99.90;;;;;;5048318;28;20056;-67
2021/04/01 05:24:18;;;;;;;15.75;5.97;;;7.10;99.90;;;;;;5083685;28;20124;-67
2021/04/01 05:27:14;;;;;;;27.65;6.70;;;6.90;99.90;;;;;;5067872;28;20086;-67
2021/04/01 05:29:58;;;;;;;15.05;5.88;;;7.00;99.90;;;;;;5055756;28;20033;-67
2021/04/01 05:33:03;;;;;;;14.90;6.32;;;7.10;99.90;;;;;;5070186;28;20112;-67
2021/04/01 05:36:10;;;;;;;17.90;6.97;;;7.00;99.90;;;;;;5050344;28;20110;-67
2021/04/01 05:39:21;;;;;;;21.33;6.80;;;6.90;99.90;;;;;;5068633;28;20040;-67
2021/04/01 05:42:31;;;;;;;15.40;6.93;;;6.90;99.90;;;;;;5056116;28;20043;-66
2021/04/01 06:01:23;;;;;;;11.57;5.43;;;7.40;99.90;;;;;;5083043;28;20405;-67
2021/04/01 06:04:23;;;;;;;17.17;6.05;;;7.70;99.90;;;;;;5067891;28;20036;-67
2021/04/01 06:07:23;;;;;;;14.20;6.40;;;8.00;99.90;;;;;;5054458;28;20474;-67
2021/04/01 06:10:09;;;;;;;12.93;5.65;;;8.10;99.90;;;;;;5060040;28;20058;-67
2021/04/01 06:12:55;;;;;;;19.15;7.07;;;8.30;99.90;;;;;;5066424;28;20485;-67
2021/04/01 06:15:47;;;;;;;17.80;8.38;;;8.40;99.90;;;;;;5084993;28;20085;-66
2021/04/01 06:18:34;;;;;;;22.23;11.50;;;8.40;99.90;;;;;;5068030;28;20063;-66
2021/04/01 06:21:24;;;;;;;16.13;9.35;;;8.50;99.90;;;;;;5058485;28;20445;-67
2021/04/01 06:24:24;;;;;;;27.05;10.27;;;8.70;99.90;;;;;;5070417;28;20097;-67
2021/04/01 06:30:50;;;;;;;13.07;7.88;;;8.90;99.90;;;;;;5062722;28;20508;-66
2021/04/01 06:33:50;;;;;;;13.77;6.70;;;9.00;99.90;;;;;;5071182;28;20035;-66
2021/04/01 06:36:36;;;;;;;16.02;6.57;;;9.20;99.90;;;;;;5068336;28;20028;-66
2021/04/01 06:39:21;;;;;;;15.27;6.70;;;9.40;99.90;;;;;;5070012;28;20040;-67
2021/04/01 06:42:19;;;;;;;16.42;7.90;;;9.50;99.90;;;;;;5069531;28;20085;-66
2021/04/01 06:45:07;;;;;;;17.33;7.25;;;9.70;99.90;;;;;;5079915;28;20044;-66
2021/04/01 06:47:56;;;;;;;13.52;6.72;;;9.80;99.90;;;;;;5069034;28;20070;-67
2021/04/01 06:50:40;;;;;;;17.27;7.78;;;9.90;99.90;;;;;;5083516;28;20090;-66
2021/04/01 06:57:46;;;;;;;18.30;8.77;;;10.00;99.90;;;;;;5075153;28;20055;-67
2021/04/01 07:01:08;;;;;;;22.23;13.82;;;10.20;99.90;;;;;;5061941;28;20107;-67
2021/04/01 07:03:57;;;;;;;21.10;11.43;;;10.30;99.90;;;;;;5055837;28;20124;-66
2021/04/01 07:06:49;;;;;;;19.85;11.18;;;10.50;99.90;;;;;;5039583;28;20032;-66
2021/04/01 07:12:29;;;;;;;13.65;5.65;;;10.80;99.90;;;;;;5083361;28;20043;-66
2021/04/01 07:15:38;;;;;;;9.48;5.38;;;11.40;99.90;;;;;;5061988;28;20401;-66
2021/04/01 07:48:46;;;;;;;8.98;4.13;;;15.30;99.90;;;;;;5055286;28;20055;-66
2021/04/01 07:52:01;;;;;;;12.23;4.40;;;15.20;99.90;;;;;;5068020;28;20028;-67
2021/04/01 08:05:29;;;;;;;11.35;3.60;;;16.70;99.90;;;;;;5065928;28;20512;-68
2021/04/01 08:08:37;;;;;;;;;;;17.60;99.90;;;;;;5022993;28;20179;-68
2021/04/01 08:11:45;;;;;;;10.57;4.20;;;18.30;99.90;;;;;;5066296;28;19975;-67
2021/04/01 08:15:08;;;;;;;10.63;4.22;;;18.70;99.90;;;;;;5060792;28;20046;-67
2021/04/01 08:18:32;;;;;;;7.88;3.15;;;19.00;99.90;;;;;;5067769;28;20044;-67
2021/04/01 08:21:27;;;;;;;9.32;3.65;;;19.30;99.90;;;;;;5068582;28;20393;-67
2021/04/01 08:24:38;;;;;;;7.57;3.35;;;19.90;99.00;;;;;;5068953;28;20090;-67
2021/04/01 08:27:53;;;;;;;;;;;20.20;96.80;;;;;;5076301;28;20393;-66
2021/04/01 08:37:28;;;;;;;11.27;2.90;;;21.20;91.40;;;;;;5068830;28;20450;-67
2021/04/01 08:40:31;;;;;;;7.25;3.33;;;21.80;91.90;;;;;;5062037;28;20098;-67
2021/04/01 08:43:51;;;;;;;7.72;2.78;;;22.10;87.80;;;;;;5048636;28;20037;-67
2021/04/01 08:47:15;;;;;;;7.13;2.47;;;22.40;85.90;;;;;;5083500;28;20044;-67
2021/04/01 08:50:32;;;;;;;7.57;3.47;;;22.70;86.60;;;;;;5064094;28;20342;-66
2021/04/01 08:53:42;;;;;;;9.57;3.20;;;22.30;85.80;;;;;;5067125;28;20094;-67
2021/04/01 08:56:53;;;;;;;8.35;3.60;;;22.20;85.60;;;;;;5069250;28;20196;-67
2021/04/01 09:00:11;;;;;;;6.93;3.03;;;22.10;86.10;;;;;;5082657;28;20476;-67
2021/04/01 09:03:21;;;;;;;13.43;3.67;;;22.10;87.20;;;;;;5082592;28;20036;-67
2021/04/01 09:06:33;;;;;;;6.63;2.90;;;22.10;84.30;;;;;;5072636;28;20500;-67
2021/04/01 09:09:40;;;;;;;;;;;22.70;83.50;;;;;;5071912;28;20111;-67
2021/04/01 09:16:21;;;;;;;10.57;3.60;;;23.90;76.60;;;;;;5071394;28;20136;-67
2021/04/01 09:19:28;;;;;;;8.15;3.10;;;24.10;76.90;;;;;;5081691;28;20102;-67
2021/04/01 09:22:15;;;;;;;9.48;2.90;;;24.10;74.40;;;;;;5051843;28;20039;-67
2021/04/01 09:25:20;;;;;;;8.88;4.13;;;24.00;74.80;;;;;;5070828;28;20081;-67
2021/04/01 09:28:30;;;;;;;11.57;4.50;;;23.80;72.40;;;;;;5070116;28;20060;-66
2021/04/01 09:31:55;;;;;;;9.35;3.78;;;23.50;71.20;;;;;;5074034;28;20497;-67
2021/04/01 09:35:01;;;;;;;12.95;4.35;;;23.60;70.70;;;;;;5058853;28;20043;-67
2021/04/01 09:38:10;;;;;;;10.80;4.85;;;24.00;70.60;;;;;;5069801;28;20029;-67
2021/04/01 09:41:29;;;;;;;13.93;5.93;;;24.60;70.50;;;;;;5080930;28;20033;-67
2021/04/01 09:44:35;;;;;;;14.02;7.63;;;24.90;64.30;;;;;;5051464;28;20478;-67
2021/04/01 09:47:49;;;;;;;13.10;7.47;;;25.30;63.00;;;;;;5046560;28;20025;-66
2021/04/01 09:50:59;;;;;;;20.10;12.35;;;25.80;62.10;;;;;;5063982;28;20047;-67
2021/04/01 09:54:04;;;;;;;15.82;9.45;;;25.90;57.50;;;;;;5067670;28;20017;-67
2021/04/01 09:56:56;;;;;;;20.27;10.05;;;26.00;57.00;;;;;;5088737;28;20040;-67
2021/04/01 10:02:34;;;;;;;19.45;10.65;;;25.70;54.60;;;;;;5085690;28;20085;-67
2021/04/01 10:05:46;;;;;;;18.38;10.48;;;25.50;55.60;;;;;;5064225;28;20532;-67
2021/04/01 10:08:52;;;;;;;23.67;14.90;;;25.10;57.10;;;;;;5066706;28;20098;-67
2021/04/01 10:12:00;;;;;;;21.38;12.98;;;24.70;53.50;;;;;;5067068;28;20044;-67
2021/04/01 10:15:12;;;;;;;25.48;13.57;;;24.50;54.90;;;;;;5068981;28;20453;-67
2021/04/01 10:18:28;;;;;;;22.40;13.45;;;24.60;52.70;;;;;;5066747;28;20036;-67
2021/04/01 10:21:43;;;;;;;20.48;13.68;;;25.10;53.90;;;;;;5062972;28;20106;-67
2021/04/01 10:25:08;;;;;;;27.95;14.30;;;25.90;52.40;;;;;;5076534;28;20083;-67
2021/04/01 10:28:35;;;;;;;25.63;15.40;;;26.00;50.80;;;;;;5068936;28;20028;-67
2021/04/01 10:31:44;;;;;;;20.35;12.50;;;25.90;50.30;;;;;;5056482;28;20048;-66
2021/04/01 10:34:51;;;;;;;23.00;15.00;;;25.80;51.20;;;;;;5070104;28;20032;-67
2021/04/01 10:37:58;;;;;;;26.48;14.32;;;25.90;50.30;;;;;;5070542;28;20028;-67
2021/04/01 10:41:18;;;;;;;23.55;14.90;;;25.10;51.00;;;;;;5069465;28;20063;-67
2021/04/01 10:44:23;;;;;;;25.55;14.88;;;24.40;51.00;;;;;;5067865;28;20093;-67
2021/04/01 10:48:09;;;;;;;23.25;14.63;;;24.70;51.30;;;;;;5067852;28;20036;-66
2021/04/01 10:51:17;;;;;;;22.23;14.13;;;25.00;52.10;;;;;;5064583;28;20025;-66
2021/04/01 10:54:09;;;;;;;22.33;14.40;;;25.00;52.40;;;;;;5067959;28;20025;-67
2021/04/01 10:56:56;;;;;;;21.13;14.55;;;25.00;52.70;;;;;;5051464;28;20110;-67
2021/04/01 10:59:47;;;;;;;25.60;14.75;;;24.90;52.50;;;;;;5069023;28;20501;-67
2021/04/01 11:02:36;;;;;;;21.48;12.52;;;24.80;52.60;;;;;;5050378;28;20051;-67
2021/04/01 11:05:23;;;;;;;29.05;14.93;;;24.80;52.50;;;;;;5069774;28;20052;-67
2021/04/01 11:08:11;;;;;;;26.67;14.40;;;24.50;51.80;;;;;;5070181;28;20051;-67
2021/04/01 11:11:15;;;;;;;25.50;15.38;;;24.20;52.60;;;;;;5048964;28;20041;-67
2021/04/01 11:14:22;;;;;;;28.52;16.00;;;24.10;53.20;;;;;;5059283;28;20024;-66
2021/04/01 11:17:09;;;;;;;25.55;13.98;;;23.60;52.30;;;;;;5051248;28;20081;-66
2021/04/01 11:19:56;;;;;;;23.40;13.43;;;23.90;53.80;;;;;;5051565;28;20520;-67
2021/04/01 11:23:02;;;;;;;22.98;12.82;;;24.20;52.80;;;;;;5051541;28;20036;-67
2021/04/01 11:25:51;;;;;;;25.27;13.02;;;24.10;52.30;;;;;;5069838;28;20150;-67
2021/04/01 11:28:39;;;;;;;21.23;12.48;;;23.90;51.70;;;;;;5051869;28;20450;-67
2021/04/01 11:31:29;;;;;;;21.02;12.40;;;23.80;53.50;;;;;;5053398;28;20027;-66
2021/04/01 11:34:13;;;;;;;22.25;13.13;;;23.90;53.20;;;;;;5024679;28;20466;-67
2021/04/01 11:36:58;;;;;;;20.58;11.32;;;23.60;53.80;;;;;;5051984;28;20063;-67
2021/04/01 11:39:42;;;;;;;24.70;12.88;;;23.60;54.60;;;;;;5051385;28;20063;-66
2021/04/01 11:42:26;;;;;;;24.40;13.25;;;23.70;53.50;;;;;;5050168;28;20035;-67
2021/04/01 11:45:11;;;;;;;22.92;12.00;;;23.80;52.40;;;;;;5054881;28;20047;-67
2021/04/01 11:47:56;;;;;;;22.95;10.95;;;23.50;52.10;;;;;;5084664;28;20048;-67
2021/04/01 11:50:40;;;;;;;17.30;9.82;;;23.90;51.90;;;;;;5068639;28;20508;-67
2021/04/01 11:53:24;;;;;;;15.07;9.43;;;24.10;51.00;;;;;;5057146;28;20179;-67
2021/04/01 11:56:09;;;;;;;21.10;10.52;;;24.00;50.60;;;;;;5083208;28;20134;-68
2021/04/01 11:58:53;;;;;;;20.80;10.35;;;23.60;50.00;;;;;;5075216;28;20078;-66
2021/04/01 12:02:18;;;;;;;21.45;10.38;;;24.00;53.00;;;;;;5052242;28;20028;-66
2021/04/01 12:05:11;;;;;;;;;;;24.40;50.70;;;;;;5069853;28;20044;-67
2021/04/01 12:07:57;;;;;;;20.77;11.60;;;24.40;54.20;;;;;;5068095;28;19993;-67
2021/04/01 12:10:52;;;;;;;19.20;11.05;;;24.60;51.80;;;;;;5053985;28;20071;-67
2021/04/01 12:13:36;;;;;;;20.17;12.05;;;24.70;52.10;;;;;;5052862;28;20036;-67
2021/04/01 12:16:23;;;;;;;19.88;11.40;;;24.80;51.20;;;;;;5051272;28;20041;-67
2021/04/01 12:19:08;;;;;;;22.05;10.57;;;25.30;51.70;;;;;;5064903;28;20025;-67
2021/04/01 12:22:14;;;;;;;17.67;9.90;;;25.40;50.90;;;;;;5062629;28;20032;-67
2021/04/01 12:24:59;;;;;;;17.02;9.90;;;25.50;50.60;;;;;;5074172;28;20101;-67
2021/04/01 12:28:04;;;;;;;27.88;12.80;;;25.50;50.20;;;;;;5075929;28;20450;-67
2021/04/01 12:31:03;;;;;;;20.20;12.20;;;25.00;49.80;;;;;;5049043;28;20103;-67
2021/04/01 12:33:51;;;;;;;25.02;13.65;;;25.00;50.80;;;;;;5051190;28;20059;-67
2021/04/01 12:36:37;;;;;;;20.40;11.98;;;25.00;50.20;;;;;;5053156;28;20040;-66
2021/04/01 12:39:42;;;;;;;28.70;14.27;;;25.40;50.00;;;;;;5074827;28;20041;-66
2021/04/01 12:42:34;;;;;;;24.17;13.52;;;24.80;49.60;;;;;;5055030;28;20459;-67
2021/04/01 12:45:26;;;;;;;21.55;13.52;;;24.80;50.20;;;;;;5070930;28;20052;-67
2021/04/01 12:48:13;;;;;;;25.50;14.35;;;25.20;50.60;;;;;;5070970;28;20354;-67
2021/04/01 12:51:00;;;;;;;28.70;15.35;;;25.40;50.40;;;;;;5071276;28;20033;-66
2021/04/01 12:53:54;;;;;;;44.00;15.73;;;25.70;49.60;;;;;;5084956;28;20028;-67
2021/04/01 12:57:22;;;;;;;26.17;12.98;;;25.90;49.50;;;;;;5064805;28;20416;-67
2021/04/01 13:00:07;;;;;;;28.98;17.10;;;26.30;50.70;;;;;;5060585;28;20477;-66
2021/04/01 13:02:51;;;;;;;29.92;18.42;;;26.20;48.40;;;;;;5071863;28;20051;-66
2021/04/01 13:05:41;;;;;;;32.65;18.52;;;25.90;47.10;;;;;;5106544;28;20040;-67
2021/04/01 13:11:32;;;;;;;31.00;19.30;;;28.50;46.70;;;;;;5055994;28;20098;-67
2021/04/01 13:14:37;;;;;;;31.20;17.90;;;29.30;43.60;;;;;;5070716;28;20063;-67
2021/04/01 13:17:41;;;;;;;27.77;17.95;;;30.30;43.60;;;;;;5072501;28;20071;-67
2021/04/01 13:20:25;;;;;;;27.75;16.85;;;30.50;41.80;;;;;;5063385;28;20123;-67
2021/04/01 13:23:12;;;;;;;33.85;15.43;;;30.60;41.20;;;;;;5054239;28;20563;-66
2021/04/01 13:25:57;;;;;;;25.95;15.90;;;29.50;41.20;;;;;;5055037;28;20040;-67
2021/04/01 13:28:43;;;;;;;28.90;17.77;;;30.80;41.00;;;;;;5055005;28;20117;-67
2021/04/01 13:31:43;;;;;;;29.35;16.27;;;31.80;39.00;;;;;;5071536;28;20039;-67
2021/04/01 13:34:41;;;;;;;27.98;17.75;;;31.30;38.40;;;;;;5082436;28;20098;-67
2021/04/01 13:40:15;;;;;;;25.00;16.75;;;32.20;39.40;;;;;;5070673;28;20111;-66
2021/04/01 13:43:03;;;;;;;23.63;14.32;;;33.50;36.90;;;;;;5090413;28;20041;-67
2021/04/01 13:45:47;;;;;;;42.22;20.17;;;33.00;36.10;;;;;;5071265;28;20044;-66
2021/04/01 13:48:33;;;;;;;30.75;16.48;;;31.70;37.50;;;;;;5070510;28;20029;-66
2021/04/01 13:51:22;;;;;;;24.52;14.77;;;32.10;37.50;;;;;;5071178;28;20033;-66
2021/04/01 13:57:50;;;;;;;25.02;15.00;;;31.70;36.10;;;;;;5049719;28;20047;-66
2021/04/01 14:10:04;;;;;;;28.60;12.48;;;33.00;35.80;;;;;;5071574;28;20502;-66
2021/04/01 14:12:50;;;;;;;26.25;13.07;;;33.00;35.30;;;;;;5072283;28;20094;-66
2021/04/01 14:15:37;;;;;;;26.98;13.90;;;32.90;35.00;;;;;;5073823;28;20102;-67
2021/04/01 14:18:28;;;;;;;26.98;13.60;;;31.30;35.00;;;;;;5053629;28;20074;-66
2021/04/01 14:21:19;;;;;;;28.13;14.00;;;31.30;35.70;;;;;;5053636;28;20028;-66
2021/04/01 14:24:16;;;;;;;23.95;13.38;;;32.50;35.60;;;;;;5071733;28;20024;-66
2021/04/01 14:29:47;;;;;;;22.10;14.20;;;32.50;35.10;;;;;;5071896;28;20090;-66
2021/04/01 14:32:33;;;;;;;19.77;11.85;;;33.30;35.20;;;;;;5056949;28;20036;-66
2021/04/01 14:35:20;;;;;;;22.55;12.18;;;33.40;35.20;;;;;;5071405;28;20559;-67
2021/04/01 14:38:05;;;;;;;23.33;11.95;;;33.90;34.90;;;;;;5071784;28;20400;-66
2021/04/01 14:41:04;;;;;;;18.98;11.30;;;33.20;35.10;;;;;;5053588;28;20039;-66
2021/04/01 14:46:36;;;;;;;18.70;9.35;;;33.90;34.20;;;;;;5053593;28;20085;-67
2021/04/01 14:49:25;;;;;;;18.38;9.05;;;34.10;34.20;;;;;;5071391;28;20055;-66
2021/04/01 14:52:09;;;;;;;17.85;8.10;;;33.80;32.40;;;;;;5039467;28;20036;-67
2021/04/01 14:54:57;;;;;;;14.70;7.55;;;34.00;32.50;;;;;;5053022;28;20033;-66
2021/04/01 14:57:42;;;;;;;20.05;7.00;;;32.80;31.50;;;;;;5053028;28;20040;-66
2021/04/01 15:00:27;;;;;;;15.65;6.85;;;31.60;31.60;;;;;;5053011;28;20048;-67
2021/04/01 15:03:13;;;;;;;13.52;6.28;;;33.30;31.90;;;;;;5071168;28;20078;-66
2021/04/01 15:05:58;;;;;;;16.58;6.05;;;34.20;32.00;;;;;;5087058;28;20071;-67
2021/04/01 15:08:42;;;;;;;13.95;5.78;;;35.00;31.60;;;;;;5086451;28;20089;-67
2021/04/01 15:11:27;;;;;;;16.48;8.18;;;34.10;31.90;;;;;;5070758;28;20043;-67
2021/04/01 15:14:13;;;;;;;18.35;7.80;;;34.40;31.20;;;;;;5084460;28;20044;-67
2021/04/01 15:17:00;;;;;;;15.45;8.30;;;34.50;31.40;;;;;;5086528;28;20075;-66
2021/04/01 15:19:46;;;;;;;19.58;8.23;;;32.60;31.30;;;;;;5069941;28;20112;-67
2021/04/01 15:22:30;;;;;;;14.98;7.10;;;31.80;32.60;;;;;;5085922;28;20040;-67
2021/04/01 15:25:14;;;;;;;20.23;7.13;;;32.20;32.30;;;;;;5086383;28;20068;-66
2021/04/01 15:28:16;;;;;;;17.90;6.57;;;32.60;31.60;;;;;;5070904;28;20036;-67
2021/04/01 15:31:00;;;;;;;18.00;7.53;;;32.50;32.10;;;;;;5070866;28;20052;-66
2021/04/01 15:33:44;;;;;;;17.48;7.75;;;31.20;32.50;;;;;;5086129;28;20024;-67
2021/04/01 15:36:29;;;;;;;23.25;8.60;;;32.30;32.80;;;;;;5052924;28;20593;-66
2021/04/01 15:39:13;;;;;;;18.35;8.55;;;30.30;32.60;;;;;;5052451;28;20044;-66
2021/04/01 15:41:58;;;;;;;19.15;8.68;;;29.50;32.90;;;;;;5052417;28;20037;-66
2021/04/01 15:44:48;;;;;;;22.52;10.75;;;29.80;33.90;;;;;;5052712;28;20072;-66
2021/04/01 15:47:35;;;;;;;20.17;9.77;;;31.30;33.80;;;;;;5070611;28;20040;-66
2021/04/01 15:50:19;;;;;;;20.73;8.45;;;31.50;33.90;;;;;;5050272;28;20082;-66
2021/04/01 15:53:04;;;;;;;22.65;9.57;;;32.10;33.90;;;;;;5065920;28;20025;-66
2021/04/01 15:55:49;;;;;;;23.00;9.23;;;30.70;33.20;;;;;;5065862;28;20183;-66
2021/04/01 15:58:34;;;;;;;26.48;11.00;;;31.20;35.10;;;;;;5050265;28;20032;-66
2021/04/01 16:01:18;;;;;;;26.13;11.65;;;31.30;34.50;;;;;;5065358;28;20033;-67
2021/04/01 16:04:03;;;;;;;25.15;12.60;;;30.70;34.40;;;;;;5044332;28;20493;-66
2021/04/01 16:06:47;;;;;;;24.33;11.48;;;30.20;34.20;;;;;;5070247;28;20119;-66
2021/04/01 16:09:32;;;;;;;28.30;13.38;;;30.60;35.80;;;;;;5053909;28;20033;-67
2021/04/01 16:12:16;;;;;;;30.30;13.90;;;31.30;34.70;;;;;;5056417;28;20135;-67
2021/04/01 16:15:00;;;;;;;30.75;11.98;;;31.20;34.70;;;;;;5074487;28;20085;-67
2021/04/01 16:17:45;;;;;;;28.08;12.57;;;31.00;34.30;;;;;;5074426;28;20041;-67
2021/04/01 16:20:29;;;;;;;21.52;10.90;;;31.20;35.00;;;;;;5055111;28;20071;-67
2021/04/01 16:23:13;;;;;;;25.83;12.80;;;31.50;35.10;;;;;;5055570;28;20507;-67
2021/04/01 16:25:58;;;;;;;26.48;11.27;;;30.30;35.00;;;;;;5056008;28;20494;-67
2021/04/01 16:28:42;;;;;;;22.80;11.27;;;28.50;36.10;;;;;;5056209;28;20040;-67
2021/04/01 16:31:29;;;;;;;25.95;12.13;;;28.30;37.70;;;;;;5073867;28;20412;-67
2021/04/01 16:34:16;;;;;;;26.60;10.55;;;28.30;37.90;;;;;;5073995;28;20503;-67
2021/04/01 16:37:01;;;;;;;29.65;11.60;;;28.80;37.60;;;;;;5055781;28;20044;-67
2021/04/01 16:39:51;;;;;;;26.40;11.80;;;28.60;37.80;;;;;;5068649;28;20024;-67
2021/04/01 16:42:35;;;;;;;33.92;11.68;;;28.00;38.60;;;;;;5071468;28;20134;-67
2021/04/01 16:45:22;;;;;;;23.88;11.65;;;27.60;38.60;;;;;;5082282;28;20033;-67
2021/04/01 16:48:07;;;;;;;29.17;8.13;;;27.70;40.00;;;;;;5072361;28;20031;-66
2021/04/01 16:50:51;;;;;;;21.60;9.05;;;27.00;39.50;;;;;;5070227;28;20193;-66